Note: Wind direction arrow are unfortunately not working and shows just north


Skjærhalden gjestehavn  Skjærhalden gjestehavn


Lynradar Scandinavia more information blitzortung!


Rain radar more information rain snow radar


Besøk Våre Andre vær websider:

Template documentation
and downloads

And another site



Ingen spesiell oppmerksomhet om været er påkrevd.    Det er ingen Vær-advarsler

Værrapport fra de nærmeste flyplassene

Warning: A non-numeric value encountered in /customers/b/7/9/khm.no/httpd.www/weather28/metar/wsMetarTxt.php on line 609 Warning: A non-numeric value encountered in /customers/b/7/9/khm.no/httpd.www/weather28/metar/metarDisplay.php on line 166 Warning: A non-numeric value encountered in /customers/b/7/9/khm.no/httpd.www/weather28/metar/metarDisplay.php on line 166 Warning: A non-numeric value encountered in /customers/b/7/9/khm.no/httpd.www/weather28/metar/wsMetarTxt.php on line 609
   
ENRY - Rygge
Oppdatert: Jan 20 2019 7:50 pm
Overskyet  
Overskyet  
   Vind: Øst 0.5 m/s
Vind: Øst 0.5 m/s
Temperatur: -6°C
Duggpunkt: -8°C
Luftfuktighet: 86%
Lufttrykk: 1016 hPa
Skyer: Overskyet
Sikt: 10 km
Detaljer skyer: Overskyet 3800 ft
ENRY 201850Z AUTO 09001KT 9999NDV OVC038/// M06/M08 Q1016
ENTO - Sandefjord
Oppdatert: Jan 20 2019 7:50 pm
For det meste Overskyet  
For det meste Overskyet  
   Vind: Stille
Vind: Stille
Temperatur: -3°C
Duggpunkt: -6°C
Luftfuktighet: 80%
Lufttrykk: 1016 hPa
Skyer: For det meste Overskyet
Sikt: More than 10 km
Detaljer skyer: For det meste Overskyet 3800 ft
ENTO 201850Z 00000KT 9999 BKN038 M03/M06 Q1016 NOSIG
ENSN - Skien
Oppdatert: Nov 9 2015 9:50 am
Oppdatert, se klokkeslett
Klart  
Klart  
   Vind: SSV 5.1 m/s<br />Gust to 5.1 m/s
Vind: SSV 5.1 m/s
Gust to 5.1 m/s
Temperatur: 7°C
Wind Chill: 4°C
Duggpunkt: 3°C
Luftfuktighet: 76%
Lufttrykk: 1000 hPa
Sikt: More than 10 km
Detaljer skyer: Klart
ENSN 090850Z 20010G22KT 150V240 CAVOK 07/03 Q1000
ENGM - Oslo
Oppdatert: Jan 20 2019 7:50 pm
Nearby Fog, For det meste Overskyet  
Nearby Fog, For det meste Overskyet  
   Vind: Stille
Vind: Stille
Temperatur: -14°C
Duggpunkt: -16°C
Luftfuktighet: 85%
Lufttrykk: 1015 hPa
Skyer: For det meste Overskyet
Sikt: 7 km
Detaljer skyer: Partly Cloudy 100 ft,
For det meste Overskyet 2700 ft
ENGM 201850Z 00000KT 7000 VCFG SCT001 BKN027 M14/M16 Q1015 TEMPO 2000 BCFG BKN002
ESOK - Karlstad
Oppdatert: Jan 20 2019 7:50 pm
Klart  
Klart  
   Vind: NNØ 1.5 m/s
Vind: NNØ 1.5 m/s
Temperatur: -13°C
Wind Chill: -17°C
Duggpunkt: -14°C
Luftfuktighet: 92%
Lufttrykk: 1016 hPa
Sikt: More than 10 km
Detaljer skyer: Klart
ESOK 201850Z 03003KT CAVOK M13/M14 Q1016
ESST - Torsby
Oppdatert: Jan 20 2019 7:50 pm
Noen skyer  
Noen skyer  
   Vind: Nord 1 m/s
Vind: Nord 1 m/s
Temperatur: -21°C
Duggpunkt: -23°C
Luftfuktighet: 84%
Lufttrykk: 1017 hPa
Skyer: Noen skyer
Sikt: More than 10 km
Detaljer skyer: Noen skyer 4800 ft
ESST 201850Z AUTO 35002KT 9999 FEW048/// M21/M23 Q1017

Script utviklet av  Saratoga-weather.org Tilpasset for tamplaten av  Weerstation Leuven

Du finner stasjonens værinfo også på:

European Weather Network